Samantha — VMQ9903 — position and weather

sailwx.info

Track history (hours):
 
Tides and Currents Weather Stations Pressure Air Temp Water Temp Dewpoint Dewpoint Depression Visibility Wind Speed Wind Dir Waves Ship Positions

Samantha

Last reported at 2014-Jan-25 08:33 UTC. Time now 2014-Aug-23 01:40 UTC.
Position S 12°14' E 130°45'.
Warning: this ship's position is months out of date.

; draft 3.5 m.

Type: Tug. MMSI: 503540300.

Date/timePositionNaut miles runAvg speedWind from/ knotsBaromVisibWave heightAir tempDewpointWater temp
2014-Jan-25 08:33S 12°14' E 130°45'6 6.0
2014-Jan-25 07:33S 12°18' E 130°41'6 6.2
2014-Jan-25 06:33S 12°23' E 130°45'8 7.7
2014-Jan-25 05:33S 12°29' E 130°50'1 1.2
2014-Jan-25 04:26S 12°28' E 130°51'0 0.0
2014-Jan-25 03:32S 12°28' E 130°51'0 0.0
2014-Jan-25 01:32S 12°28' E 130°51'0 0.0
2014-Jan-24 10:24S 12°28' E 130°51'0 0.0
2014-Jan-24 09:33S 12°28' E 130°51'0 0.0
2014-Jan-24 08:24S 12°28' E 130°51'0 0.0
2014-Jan-24 05:27S 12°28' E 130°51'  
2014-Jan-21 00:10S 12°28' E 130°51'2 2.3
2014-Jan-20 23:28S 12°29' E 130°52'  
2014-Jan-17 01:05S 12°28' E 130°51'0 0.0
2014-Jan-17 00:29S 12°28' E 130°51'2 1.8
2014-Jan-16 23:33S 12°29' E 130°52'2 1.5
2014-Jan-16 22:19S 12°27' E 130°51'  
Track history (hours):
 
Tides and Currents Weather Stations Pressure Air Temp Water Temp Dewpoint Dewpoint Depression Visibility Wind Speed Wind Dir Waves Ship Positions

Samantha

Last reported at 2014-Jan-25 08:33 UTC. Time now 2014-Aug-23 01:40 UTC.
Position S 12°14' E 130°45'.
Warning: this ship's position is months out of date.

; draft 3.5 m.

Type: Tug. MMSI: 503540300.

Date/timePositionNaut miles runAvg speedWind from/ knotsBaromVisibWave heightAir tempDewpointWater temp
2014-Jan-25 08:33S 12°14' E 130°45'6 6.0
2014-Jan-25 07:33S 12°18' E 130°41'6 6.2
2014-Jan-25 06:33S 12°23' E 130°45'8 7.7
2014-Jan-25 05:33S 12°29' E 130°50'1 1.2
2014-Jan-25 04:26S 12°28' E 130°51'0 0.0
2014-Jan-25 03:32S 12°28' E 130°51'0 0.0
2014-Jan-25 01:32S 12°28' E 130°51'0 0.0
2014-Jan-24 10:24S 12°28' E 130°51'0 0.0
2014-Jan-24 09:33S 12°28' E 130°51'0 0.0
2014-Jan-24 08:24S 12°28' E 130°51'0 0.0
2014-Jan-24 05:27S 12°28' E 130°51'  
2014-Jan-21 00:10S 12°28' E 130°51'2 2.3
2014-Jan-20 23:28S 12°29' E 130°52'  
2014-Jan-17 01:05S 12°28' E 130°51'0 0.0
2014-Jan-17 00:29S 12°28' E 130°51'2 1.8
2014-Jan-16 23:33S 12°29' E 130°52'2 1.5
2014-Jan-16 22:19S 12°27' E 130°51'  

Dump ship's entire track history